Time;durP1;ratioP1;P1;durP2;ratioP2;P2;SDS_P1;SDS_P2;PMS_P1;PMS_P2;Temp;Humidity;BMP_temperature;BMP_pressure;BME280_temperature;BME280_humidity;BME280_pressure;Samples;Min_cycle;Max_cycle;Signal;HPM_P1;HPM_P2
2022/10/27 00:01:33;;;;;;;8.02;4.00;;;;;;;13.03;100.00;101967.00;5112743;28;20545;-73
2022/10/27 00:07:20;;;;;;;8.75;3.90;;;;;;;12.98;100.00;101956.81;5114267;28;20088;-73
2022/10/27 00:09:46;;;;;;;6.50;4.03;;;;;;;12.93;100.00;101953.09;5117013;28;20035;-73
2022/10/27 00:12:11;;;;;;;8.73;4.93;;;;;;;12.92;100.00;101963.00;5113810;28;20028;-73
2022/10/27 00:14:36;;;;;;;8.90;4.30;;;;;;;12.93;100.00;101972.72;5116988;27;20416;-73
2022/10/27 00:17:02;;;;;;;9.48;3.90;;;;;;;12.85;100.00;101970.22;5113828;28;20298;-74
2022/10/27 00:19:27;;;;;;;9.20;4.40;;;;;;;12.82;100.00;101967.94;5113777;28;20499;-74
2022/10/27 00:21:53;;;;;;;6.88;4.40;;;;;;;12.75;100.00;101969.78;5095132;28;20358;-74
2022/10/27 00:27:40;;;;;;;7.25;3.88;;;;;;;12.71;100.00;101974.69;5113880;28;20045;-74
2022/10/27 00:30:06;;;;;;;8.52;4.18;;;;;;;12.68;100.00;101976.97;5095270;28;20031;-74
2022/10/27 00:32:32;;;;;;;8.52;4.45;;;;;;;12.71;100.00;101974.69;5094748;28;20063;-74
2022/10/27 00:34:57;;;;;;;7.68;4.63;;;;;;;12.73;100.00;101979.91;5113518;28;20032;-74
2022/10/27 00:37:22;;;;;;;9.30;4.87;;;;;;;12.76;100.00;101979.50;5113566;28;20500;-74
2022/10/27 00:39:47;;;;;;;7.80;3.80;;;;;;;12.74;100.00;101978.03;5116717;27;20334;-74
2022/10/27 00:42:13;;;;;;;8.70;4.68;;;;;;;12.71;100.00;101989.97;5113602;28;20276;-74
2022/10/27 00:44:44;;;;;;;9.23;4.50;;;;;;;12.68;100.00;101985.00;5116300;27;20088;-74
2022/10/27 00:47:23;;;;;;;7.53;4.30;;;;;;;12.62;100.00;101973.22;5113311;28;20032;-74
2022/10/27 00:50:12;;;;;;;7.65;4.70;;;;;;;12.67;100.00;101989.53;5094162;28;20466;-74
2022/10/27 00:52:56;;;;;;;7.65;4.03;;;;;;;12.65;100.00;101985.41;5095074;28;20028;-74
2022/10/27 00:55:29;;;;;;;6.90;3.90;;;;;;;12.67;100.00;101991.41;5115124;28;20028;-74
2022/10/27 00:57:58;;;;;;;9.38;4.55;;;;;;;12.64;100.00;101989.94;5113505;28;20038;-74
2022/10/27 01:00:24;;;;;;;6.68;3.95;;;;;;;12.65;100.00;101994.28;5113114;28;20034;-74
2022/10/27 01:02:50;;;;;;;10.07;3.85;;;;;;;12.65;100.00;101986.25;5116218;28;20051;-74
2022/10/27 01:05:20;;;;;;;5.40;3.88;;;;;;;12.68;100.00;101988.53;5094783;28;20042;-74
2022/10/27 01:07:47;;;;;;;7.72;3.75;;;;;;;12.64;100.00;101979.22;5116230;27;20161;-74
2022/10/27 01:10:13;;;;;;;11.80;4.13;;;;;;;12.68;100.00;101990.38;5094648;28;20442;-74
2022/10/27 01:12:40;;;;;;;7.35;4.30;;;;;;;12.73;100.00;101989.81;5113067;28;20031;-74
2022/10/27 01:15:06;;;;;;;8.50;4.07;;;;;;;12.75;100.00;101998.47;5115978;27;20035;-74
2022/10/27 01:17:40;;;;;;;9.60;5.05;;;;;;;12.74;100.00;101997.66;5112852;28;20404;-74
2022/10/27 01:20:25;;;;;;;11.38;4.13;;;;;;;12.75;100.00;101990.44;5115834;27;20102;-74
2022/10/27 01:22:54;;;;;;;8.50;4.30;;;;;;;12.80;100.00;101996.84;5094455;28;20032;-74
2022/10/27 01:26:05;;;;;;;8.10;4.13;;;;;;;12.81;100.00;101995.81;5115748;27;20043;-74
2022/10/27 01:29:05;;;;;;;6.53;3.97;;;;;;;12.83;100.00;102003.66;5112714;28;20504;-75
2022/10/27 01:31:42;;;;;;;8.20;3.70;;;;;;;12.82;100.00;102005.53;5115805;27;20119;-74
2022/10/27 01:34:26;;;;;;;9.43;3.90;;;;;;;12.85;100.00;102001.59;5112680;28;20053;-74
2022/10/27 01:36:59;;;;;;;12.93;5.28;;;;;;;12.87;100.00;102003.06;5114635;28;20047;-74
2022/10/27 01:39:28;;;;;;;8.55;3.97;;;;;;;12.89;100.00;102001.00;5112558;28;20024;-74
2022/10/27 01:42:01;;;;;;;11.32;4.10;;;;;;;12.88;100.00;101995.84;5112534;28;20035;-74
2022/10/27 01:44:34;;;;;;;7.90;4.30;;;;;;;12.89;100.00;102000.19;5115576;28;20043;-74
2022/10/27 01:47:01;;;;;;;10.40;3.72;;;;;;;12.90;100.00;102001.84;5112552;28;20039;-75
2022/10/27 01:49:38;;;;;;;5.53;4.10;;;;;;;12.85;100.00;101990.88;5093417;28;20088;-74
2022/10/27 01:52:27;;;;;;;8.38;3.55;;;;;;;12.94;100.00;102006.59;5112414;28;20032;-74
2022/10/27 01:54:54;;;;;;;7.85;3.72;;;;;;;12.97;100.00;102008.03;5115108;27;20047;-75
2022/10/27 01:57:38;;;;;;;10.65;4.72;;;;;;;12.99;100.00;102005.97;5094024;28;20498;-75
2022/10/27 02:03:34;;;;;;;11.27;4.75;;;;;;;12.98;100.00;101997.09;5110589;28;20047;-74
2022/10/27 02:06:17;;;;;;;6.82;3.47;;;;;;;12.96;100.00;101999.16;5094683;28;20020;-74
2022/10/27 02:08:49;;;;;;;7.82;3.88;;;;;;;12.96;100.00;101990.28;5112297;28;20486;-74
2022/10/27 02:11:15;;;;;;;5.47;3.38;;;;;;;12.94;100.00;101990.50;5094031;28;20039;-74
2022/10/27 02:13:43;;;;;;;12.48;4.00;;;;;;;12.95;100.00;101997.50;5093297;28;20040;-74
2022/10/27 02:16:30;;;;;;;9.40;3.72;;;;;;;12.95;100.00;101989.44;5111980;28;20035;-74
2022/10/27 02:19:10;;;;;;;10.18;4.82;;;;;;;12.90;100.00;101978.50;5115259;28;20044;-74
2022/10/27 02:21:36;;;;;;;4.88;3.58;;;;;;;12.93;100.00;101985.31;5112065;28;20043;-74
2022/10/27 02:24:03;;;;;;;6.45;3.78;;;;;;;12.93;100.00;101986.16;5115123;28;20188;-74
2022/10/27 02:26:41;;;;;;;8.63;4.07;;;;;;;12.93;100.00;101985.31;5112070;28;20047;-74
2022/10/27 02:29:13;;;;;;;9.40;4.22;;;;;;;12.94;100.00;101970.88;5112105;28;20514;-74
2022/10/27 02:31:44;;;;;;;7.45;3.78;;;;;;;12.93;100.00;101979.94;5115030;28;20400;-75
2022/10/27 02:37:35;;;;;;;10.80;4.38;;;;;;;12.97;100.00;101981.19;5112176;28;20114;-74
2022/10/27 02:40:00;;;;;;;9.15;4.15;;;;;;;12.97;100.00;101986.56;5093583;28;20140;-74
2022/10/27 02:42:25;;;;;;;9.93;3.42;;;;;;;12.98;100.00;101982.84;5114833;28;20087;-74
2022/10/27 02:44:51;;;;;;;9.32;3.80;;;;;;;12.91;100.00;101971.28;5111743;28;20027;-74
2022/10/27 02:47:16;;;;;;;13.75;4.10;;;;;;;12.91;100.00;101979.31;5112433;27;20114;-74
2022/10/27 02:49:43;;;;;;;8.55;3.95;;;;;;;12.91;100.00;101976.63;5116081;28;20039;-74
2022/10/27 02:52:08;;;;;;;8.45;3.88;;;;;;;12.86;100.00;101971.06;5097011;28;20053;-74
2022/10/27 02:54:33;;;;;;;13.43;4.97;;;;;;;12.79;100.00;101965.66;5118213;27;20039;-74
2022/10/27 02:56:59;;;;;;;7.87;3.87;;;;;;;12.80;100.00;101971.84;5096759;28;20020;-74
2022/10/27 02:59:24;;;;;;;7.47;3.70;;;;;;;12.77;100.00;101970.41;5118306;28;20287;-74
2022/10/27 03:01:49;;;;;;;8.60;4.47;;;;;;;12.73;100.00;101961.09;5096828;28;20332;-74
2022/10/27 03:04:15;;;;;;;10.85;4.38;;;;;;;12.75;100.00;101969.78;5115123;28;20034;-74
2022/10/27 03:06:40;;;;;;;11.43;4.40;;;;;;;12.70;100.00;101958.78;5118191;27;20035;-74
2022/10/27 03:09:05;;;;;;;7.28;4.13;;;;;;;12.62;100.00;101953.59;5114801;28;20293;-74
2022/10/27 03:11:30;;;;;;;10.50;4.72;;;;;;;12.58;100.00;101939.78;5118006;27;20044;-74
2022/10/27 03:13:56;;;;;;;8.03;4.60;;;;;;;12.61;100.00;101944.72;5096501;28;20027;-74
2022/10/27 03:19:43;;;;;;;9.43;4.40;;;;;;;12.46;100.00;101941.38;5112889;28;20447;-74
2022/10/27 03:22:08;;;;;;;8.05;4.53;;;;;;;12.39;100.00;101941.31;5096335;28;20059;-74
2022/10/27 03:24:33;;;;;;;8.68;4.55;;;;;;;12.38;100.00;101936.16;5117731;28;20084;-74
2022/10/27 03:26:59;;;;;;;12.90;4.37;;;;;;;12.34;100.00;101942.97;5114624;28;20027;-74
2022/10/27 03:29:24;;;;;;;7.78;4.63;;;;;;;12.32;100.00;101937.78;5095593;28;20294;-74
2022/10/27 03:31:49;;;;;;;9.38;4.50;;;;;;;12.27;100.00;101945.59;5114436;28;20100;-74
2022/10/27 03:34:15;;;;;;;7.88;4.15;;;;;;;12.26;100.00;101935.09;5114610;28;20038;-74
2022/10/27 03:36:40;;;;;;;8.18;4.70;;;;;;;12.34;100.00;101948.31;5117972;28;20365;-73
2022/10/27 03:39:05;;;;;;;9.20;4.03;;;;;;;12.36;100.00;101947.09;5114929;28;20028;-74
2022/10/27 03:41:30;;;;;;;11.05;5.40;;;;;;;12.27;100.00;101937.56;5095591;28;20342;-74
2022/10/27 03:43:56;;;;;;;7.80;4.67;;;;;;;12.19;100.00;101934.22;5114549;28;20084;-73
2022/10/27 03:46:21;;;;;;;6.27;4.47;;;;;;;12.15;100.00;101928.44;5095334;28;20377;-74
2022/10/27 03:48:46;;;;;;;12.63;4.83;;;;;;;12.14;100.00;101932.09;5096208;28;20293;-74
2022/10/27 03:51:11;;;;;;;9.73;4.90;;;;;;;12.07;100.00;101925.88;5114522;28;20641;-74
2022/10/27 03:53:37;;;;;;;7.22;4.85;;;;;;;12.10;100.00;101931.69;5117161;27;20286;-74
2022/10/27 03:56:02;;;;;;;9.75;4.75;;;;;;;12.15;100.00;101933.78;5096074;28;20020;-74
2022/10/27 03:58:28;;;;;;;11.48;4.78;;;;;;;12.07;100.00;101929.41;5117163;27;20427;-74
2022/10/27 04:00:53;;;;;;;6.53;4.93;;;;;;;12.09;100.00;101929.19;5114380;28;20345;-74
2022/10/27 04:03:18;;;;;;;10.82;4.80;;;;;;;12.07;100.00;101925.88;5114422;28;20089;-74
2022/10/27 04:05:48;;;;;;;11.95;5.50;;;;;;;12.00;100.00;101927.69;5117235;28;20047;-74
2022/10/27 04:08:13;;;;;;;8.65;4.95;;;;;;;11.97;100.00;101931.59;5113929;28;20046;-74
2022/10/27 04:10:38;;;;;;;9.60;4.60;;;;;;;11.96;100.00;101935.31;5117101;27;20044;-74
2022/10/27 04:13:04;;;;;;;7.87;5.20;;;;;;;11.83;100.00;101924.50;5113932;28;20302;-74
2022/10/27 04:18:51;;;;;;;7.68;4.80;;;;;;;11.85;100.00;101938.50;5114037;28;20308;-74
2022/10/27 04:21:16;;;;;;;10.35;5.22;;;;;;;11.86;100.00;101950.09;5095623;28;20048;-74
2022/10/27 04:23:42;;;;;;;8.80;5.30;;;;;;;11.89;100.00;101957.75;5095005;28;20035;-74
2022/10/27 04:29:28;;;;;;;10.27;5.38;;;;;;;11.84;100.00;101952.94;5111868;28;20046;-74
2022/10/27 04:31:53;;;;;;;8.83;5.50;;;;;;;11.87;100.00;101957.13;5113647;28;20028;-74
2022/10/27 04:34:19;;;;;;;8.68;4.95;;;;;;;11.81;100.00;101955.19;5116816;27;20372;-74
2022/10/27 04:36:44;;;;;;;12.27;5.77;;;;;;;11.82;100.00;101959.53;5095409;28;20084;-74
2022/10/27 04:39:12;;;;;;;10.47;6.27;;;;;;;11.81;100.00;101947.16;5116639;27;20292;-74
2022/10/27 04:41:38;;;;;;;10.70;5.32;;;;;;;11.82;100.00;101963.03;5113482;28;20269;-74
2022/10/27 04:44:04;;;;;;;10.68;5.15;;;;;;;11.75;100.00;101954.09;5113326;28;20122;-74
2022/10/27 04:46:29;;;;;;;14.30;5.53;;;;;;;11.71;100.00;101955.50;5116445;28;20387;-74
2022/10/27 04:48:54;;;;;;;9.73;6.27;;;;;;;11.69;100.00;101954.88;5113292;28;20462;-74
2022/10/27 04:51:20;;;;;;;8.65;5.13;;;;;;;11.71;100.00;101960.84;5116380;28;20281;-74
2022/10/27 04:53:45;;;;;;;11.00;5.17;;;;;;;11.71;100.00;101963.53;5094950;28;20020;-74
2022/10/27 04:56:10;;;;;;;9.40;5.87;;;;;;;11.69;100.00;101955.69;5113177;28;20269;-74
2022/10/27 04:58:35;;;;;;;12.07;5.68;;;;;;;11.70;100.00;101956.53;5116235;27;20286;-74
2022/10/27 05:01:09;;;;;;;9.48;4.78;;;;;;;11.76;100.00;101961.09;5095094;28;20053;-74
2022/10/27 05:06:56;;;;;;;8.48;5.15;;;;;;;11.75;100.00;101954.09;5113470;28;20064;-74
2022/10/27 05:09:21;;;;;;;10.93;5.38;;;;;;;11.73;100.00;101953.44;5094086;28;20036;-74
2022/10/27 05:11:46;;;;;;;15.87;5.53;;;;;;;11.74;100.00;101957.78;5112526;28;20038;-74
2022/10/27 05:14:11;;;;;;;8.57;5.70;;;;;;;11.78;100.00;101956.41;5095839;27;20285;-74
2022/10/27 05:16:37;;;;;;;9.13;5.00;;;;;;;11.82;100.00;101960.34;5114765;28;20742;-73
2022/10/27 05:19:02;;;;;;;9.00;5.97;;;;;;;11.81;100.00;101955.19;5112995;28;20368;-74
2022/10/27 05:21:27;;;;;;;9.40;5.50;;;;;;;11.83;100.00;101945.94;5115882;27;20286;-73
2022/10/27 05:23:52;;;;;;;11.23;5.38;;;;;;;11.95;100.00;101955.09;5094585;28;21055;-74
2022/10/27 05:26:18;;;;;;;10.03;5.87;;;;;;;12.01;100.00;101948.94;5115795;28;20364;-74
2022/10/27 05:32:04;;;;;;;9.73;5.53;;;;;;;12.04;100.00;101951.22;5112797;28;20299;-73
2022/10/27 05:34:30;;;;;;;12.90;5.73;;;;;;;12.05;100.00;101944.84;5112649;28;20023;-74
2022/10/27 05:36:55;;;;;;;8.33;5.17;;;;;;;12.13;100.00;101962.63;5112701;28;20265;-74
2022/10/27 05:39:20;;;;;;;7.83;5.90;;;;;;;12.08;100.00;101954.34;5115832;28;20285;-74
2022/10/27 05:41:45;;;;;;;12.77;5.73;;;;;;;12.10;100.00;101945.09;5094278;28;20282;-73
2022/10/27 05:44:11;;;;;;;9.40;5.47;;;;;;;12.07;100.00;101948.16;5115602;27;20281;-73
2022/10/27 05:46:36;;;;;;;11.77;6.57;;;;;;;12.05;100.00;101947.53;5094334;28;20035;-73
2022/10/27 05:49:01;;;;;;;9.38;6.20;;;;;;;12.06;100.00;101949.19;5112425;28;20368;-74
2022/10/27 05:51:26;;;;;;;10.65;5.90;;;;;;;12.06;100.00;101941.16;5093683;28;20468;-74
2022/10/27 05:53:55;;;;;;;9.97;5.57;;;;;;;12.03;100.00;101936.19;5112469;28;20027;-74
2022/10/27 05:56:20;;;;;;;9.75;6.05;;;;;;;12.07;100.00;101944.66;5115431;27;20304;-74
2022/10/27 05:58:45;;;;;;;11.30;6.10;;;;;;;12.02;100.00;101947.09;5094127;28;20038;-74
2022/10/27 06:01:10;;;;;;;11.57;6.23;;;;;;;12.03;100.00;101940.72;5094252;28;20382;-74
2022/10/27 06:03:36;;;;;;;11.13;6.03;;;;;;;12.04;100.00;101935.16;5115131;28;20378;-74
2022/10/27 06:06:04;;;;;;;8.70;6.27;;;;;;;11.99;100.00;101929.56;5112170;28;20030;-73
2022/10/27 06:08:29;;;;;;;12.90;6.60;;;;;;;11.97;100.00;101947.69;5093411;28;20373;-74
2022/10/27 06:10:55;;;;;;;9.88;6.07;;;;;;;11.99;100.00;101950.19;5112204;28;20106;-74
2022/10/27 06:13:20;;;;;;;12.20;6.53;;;;;;;11.98;100.00;101941.31;5113946;27;20353;-74
2022/10/27 06:15:46;;;;;;;12.87;6.33;;;;;;;12.04;100.00;101935.16;5095064;28;20024;-74
2022/10/27 06:18:12;;;;;;;14.98;6.07;;;;;;;12.18;100.00;101933.41;5112008;28;20265;-73
2022/10/27 06:20:37;;;;;;;10.93;5.82;;;;;;;12.19;100.00;101932.38;5115059;27;20036;-74
2022/10/27 06:26:24;;;;;;;8.27;5.30;;;;;;;12.22;100.00;101929.28;5114519;28;20360;-74
2022/10/27 06:28:50;;;;;;;10.63;5.67;;;;;;;12.14;100.00;101928.59;5114788;28;20031;-74
2022/10/27 06:31:15;;;;;;;9.18;6.28;;;;;;;12.17;100.00;101936.28;5118297;28;20653;-74
2022/10/27 06:33:40;;;;;;;8.83;6.13;;;;;;;12.15;100.00;101931.09;5097561;28;20047;-74
2022/10/27 06:36:06;;;;;;;11.15;5.72;;;;;;;12.24;100.00;101927.22;5115501;28;20587;-74
2022/10/27 06:38:31;;;;;;;13.48;5.88;;;;;;;12.29;100.00;101923.94;5118519;28;20093;-74
2022/10/27 06:40:56;;;;;;;7.50;5.15;;;;;;;12.32;100.00;101921.69;5115475;28;20027;-74
2022/10/27 06:43:21;;;;;;;8.97;5.30;;;;;;;12.35;100.00;101928.50;5118534;27;20075;-74
2022/10/27 06:49:08;;;;;;;9.00;5.22;;;;;;;12.32;100.00;101926.22;5111207;28;20343;-74
2022/10/27 06:51:34;;;;;;;9.32;5.15;;;;;;;12.26;100.00;101919.00;5099650;28;20028;-74
2022/10/27 06:53:59;;;;;;;7.03;5.00;;;;;;;12.40;100.00;101921.53;5096977;28;20027;-73
2022/10/27 06:56:24;;;;;;;7.83;5.40;;;;;;;12.51;100.00;101906.72;5118252;28;20070;-74
2022/10/27 06:58:49;;;;;;;7.73;5.33;;;;;;;12.63;100.00;101915.84;5115183;28;20581;-74
2022/10/27 07:01:15;;;;;;;8.07;4.47;;;;;;;12.79;100.00;101903.09;5118158;27;20365;-73
2022/10/27 07:03:41;;;;;;;9.05;5.20;;;;;;;13.19;100.00;101907.53;5096740;28;20285;-74
2022/10/27 07:06:06;;;;;;;7.90;4.40;;;;;;;13.36;100.00;101905.28;5114971;28;20094;-73
2022/10/27 07:08:32;;;;;;;7.57;4.25;;;;;;;13.44;100.00;101912.31;5117926;28;20039;-74
2022/10/27 07:10:57;;;;;;;5.22;4.15;;;;;;;13.53;100.00;101917.25;5096548;28;20027;-74
2022/10/27 07:13:22;;;;;;;7.18;4.47;;;;;;;13.50;100.00;101917.69;5117987;28;20040;-74
2022/10/27 07:15:48;;;;;;;8.15;5.47;;;;;;;13.56;100.00;101921.41;5114898;28;20026;-74
2022/10/27 07:18:13;;;;;;;6.17;4.57;;;;;;;13.57;100.00;101920.38;5115053;28;20032;-74
2022/10/27 07:20:39;;;;;;;4.93;3.95;;;;;;;13.65;100.00;101928.25;5117813;28;20362;-74
2022/10/27 07:23:06;;;;;;;7.25;3.80;;;;;;;13.73;100.00;101929.88;5114756;28;20028;-74
2022/10/27 07:25:32;;;;;;;10.38;5.00;;;;;;;13.63;100.00;101928.44;5117782;28;20047;-73
2022/10/27 07:28:00;;;;;;;8.13;4.22;;;;;;;13.60;100.00;101936.09;5096244;28;20080;-73
2022/10/27 07:30:30;;;;;;;7.55;4.05;;;;;;;13.60;100.00;101917.28;5115731;27;20027;-73
2022/10/27 07:32:56;;;;;;;6.72;3.58;;;;;;;13.55;100.00;101914.38;5115927;28;20043;-73
2022/10/27 07:35:23;;;;;;;12.13;4.45;;;;;;;13.57;100.00;101918.50;5114120;28;20532;-73
2022/10/27 07:37:48;;;;;;;8.18;4.00;;;;;;;13.61;100.00;101921.63;5095653;28;20521;-74
2022/10/27 07:40:16;;;;;;;5.43;3.53;;;;;;;13.68;100.00;101927.81;5114368;28;20027;-74
2022/10/27 07:42:43;;;;;;;8.07;4.65;;;;;;;13.75;100.00;101909.00;5117410;27;20579;-73
2022/10/27 07:45:08;;;;;;;5.20;3.75;;;;;;;13.95;100.00;101915.19;5114320;28;20027;-73
2022/10/27 07:50:55;;;;;;;9.35;4.13;;;;;;;14.40;100.00;101926.81;5114644;28;20043;-74
2022/10/27 07:53:21;;;;;;;7.43;4.22;;;;;;;14.61;100.00;101927.63;5114315;28;20448;-73
2022/10/27 08:03:01;;;;;;;4.88;3.42;;;;;;;15.11;100.00;101923.19;5114499;28;20058;-73
2022/10/27 08:05:32;;;;;;;8.80;4.20;;;;;;;15.07;100.00;101930.91;5115257;28;20181;-74
2022/10/27 08:08:03;;;;;;;4.55;3.67;;;;;;;14.97;100.00;101927.84;5115048;28;20048;-74
2022/10/27 08:10:30;;;;;;;4.75;3.72;;;;;;;14.93;100.00;101907.75;5113929;28;20122;-74
2022/10/27 08:12:56;;;;;;;5.97;3.67;;;;;;;14.92;100.00;101922.28;5117141;28;20038;-74
2022/10/27 08:18:43;;;;;;;5.55;3.10;;;;;;;14.95;100.00;101916.44;5114173;28;20065;-74
2022/10/27 08:21:09;;;;;;;6.05;3.63;;;;;;;14.96;100.00;101901.94;5113810;28;20032;-74
2022/10/27 08:23:34;;;;;;;5.65;3.10;;;;;;;15.11;100.00;101907.88;5116894;28;20496;-74
2022/10/27 08:26:00;;;;;;;8.30;3.95;;;;;;;15.09;100.00;101895.66;5113710;28;20027;-74
2022/10/27 08:28:25;;;;;;;5.67;3.40;;;;;;;15.15;100.00;101902.88;5113638;28;20055;-73
2022/10/27 08:34:12;;;;;;;7.07;3.50;;;;;;;15.50;100.00;101916.69;5114060;28;20542;-74
2022/10/27 08:36:40;;;;;;;5.72;3.30;;;;;;;15.60;100.00;101914.34;5116907;28;20118;-74
2022/10/27 08:39:08;;;;;;;5.55;3.35;;;;;;;15.74;100.00;101918.59;5113604;28;20031;-73
2022/10/27 08:41:49;;;;;;;8.63;3.30;;;;;;;15.79;100.00;101916.03;5116546;27;20104;-73
2022/10/27 08:44:20;;;;;;;4.90;3.38;;;;;;;16.01;100.00;101905.66;5113505;28;20035;-74
2022/10/27 08:46:49;;;;;;;7.07;3.20;;;;;;;16.15;100.00;101900.09;5115607;28;20166;-74
2022/10/27 08:52:43;;;;;;;5.85;2.90;;;;;;;16.29;100.00;101902.44;5113027;28;20065;-73
2022/10/27 08:55:22;;;;;;;5.28;3.20;;;;;;;16.25;100.00;101895.84;5112753;28;20038;-74
2022/10/27 08:58:05;;;;;;;4.43;3.08;;;;;;;16.25;100.00;101890.44;5115860;27;20495;-74
2022/10/27 09:00:43;;;;;;;4.00;2.40;;;;;;;16.24;100.00;101888.81;5113270;28;20023;-74
2022/10/27 09:03:33;;;;;;;7.13;3.00;;;;;;;16.34;100.00;101883.69;5113221;28;20024;-74
2022/10/27 09:13:06;;;;;;;6.15;2.42;;;;;;;16.70;100.00;101863.09;5113486;28;20046;-73
2022/10/27 09:15:39;;;;;;;7.63;2.70;;;;;;;16.77;100.00;101871.94;5115982;27;20084;-74
2022/10/27 09:21:27;;;;;;;3.75;2.35;;;;;;;16.94;100.00;101850.47;5113231;28;20096;-74
2022/10/27 09:27:15;;;;;;;7.18;2.50;;;;;;;17.13;100.00;101857.47;5116178;28;20069;-74
2022/10/27 09:29:41;;;;;;;6.68;2.25;;;;;;;17.20;100.00;101854.66;5112711;28;20058;-74
2022/10/27 09:32:18;;;;;;;4.10;1.98;;;;;;;17.40;100.00;101857.84;5112677;28;20099;-74
2022/10/27 09:38:13;;;;;;;4.90;2.15;;;;;;;17.63;100.00;101860.53;5111225;27;20051;-73
2022/10/27 09:44:02;;;;;;;3.97;2.00;;;;;;;17.75;97.66;101841.63;5112903;28;20449;-74
2022/10/27 09:46:29;;;;;;;4.22;2.00;;;;;;;17.81;99.76;101842.56;5112367;28;20027;-74
2022/10/27 09:52:23;;;;;;;7.38;1.73;;;;;;;18.01;97.84;101837.59;5113010;28;20047;-74
2022/10/27 09:58:09;;;;;;;2.63;1.73;;;;;;;18.12;96.86;101838.63;5110349;28;20396;-74
2022/10/27 10:04:27;;;;;;;5.20;1.85;;;;;;;18.46;95.90;101844.97;5112749;28;20042;-74
2022/10/27 10:06:57;;;;;;;3.95;1.73;;;;;;;18.66;93.83;101839.97;5113704;28;20078;-74
2022/10/27 10:12:45;;;;;;;6.40;1.90;;;;;;;18.66;90.00;101831.84;5114488;28;20054;-74
2022/10/27 10:18:34;;;;;;;6.85;1.70;;;;;;;18.93;90.77;101818.50;5111954;27;20039;-74
2022/10/27 10:21:11;;;;;;;6.43;1.90;;;;;;;19.06;90.44;101815.44;5092235;28;20036;-74
2022/10/27 10:23:48;;;;;;;2.38;1.70;;;;;;;19.11;91.34;101818.25;5100444;28;20500;-74
2022/10/27 10:26:18;;;;;;;4.13;1.92;;;;;;;19.12;88.23;101821.78;5115178;28;20042;-74
2022/10/27 10:32:10;;;;;;;4.32;1.80;;;;;;;18.99;90.46;101813.97;5110199;28;20491;-74
2022/10/27 10:34:36;;;;;;;3.85;1.92;;;;;;;19.02;89.82;101818.91;5111968;28;20451;-74
2022/10/27 10:37:03;;;;;;;5.68;2.10;;;;;;;19.05;89.28;101815.69;5114942;27;20119;-74
2022/10/27 10:39:36;;;;;;;3.10;1.60;;;;;;;19.09;89.84;101816.88;5111673;28;20532;-75
2022/10/27 10:42:13;;;;;;;3.72;1.90;;;;;;;19.11;90.52;101807.41;5115024;28;20740;-74
2022/10/27 10:48:05;;;;;;;11.38;4.97;;;;;;;19.09;91.77;101792.47;5105630;28;20084;-75
2022/10/27 10:53:58;;;;;;;6.53;2.20;;;;;;;19.32;89.81;101794.97;5112092;28;20046;-74
2022/10/27 10:56:32;;;;;;;3.65;2.10;;;;;;;19.45;87.73;101791.09;5111481;28;20040;-73
2022/10/27 11:02:28;;;;;;;4.07;2.45;;;;;;;19.47;88.57;101783.53;5111845;28;20077;-74
2022/10/27 11:12:09;;;;;;;6.57;3.33;;;;;;;19.45;90.53;101793.81;5115014;28;20432;-74
2022/10/27 11:14:35;;;;;;;21.55;11.43;;;;;;;19.40;88.46;101789.13;5096543;28;20032;-75
2022/10/27 11:17:03;;;;;;;26.58;18.02;;;;;;;19.43;89.80;101793.25;5117948;28;20043;-75
2022/10/27 11:22:51;;;;;;;12.95;8.70;;;;;;;19.52;89.43;101788.19;5115033;28;20038;-74
2022/10/27 11:25:21;;;;;;;3.10;1.98;;;;;;;19.49;89.13;101770.53;5114717;28;20486;-75
2022/10/27 11:34:57;;;;;;;17.83;8.35;;;;;;;19.41;92.88;101785.34;5114761;28;20070;-75
2022/10/27 11:37:29;;;;;;;21.35;10.23;;;;;;;19.48;92.00;101772.44;5096164;28;20084;-75
2022/10/27 11:40:26;;;;;;;13.65;5.07;;;;;;;19.60;92.05;101776.94;5095714;28;20084;-73
2022/10/27 11:43:00;;;;;;;7.57;2.75;;;;;;;19.59;91.14;101769.88;5072088;28;20118;-74
2022/10/27 11:45:32;;;;;;;6.50;3.08;;;;;;;19.66;92.58;101768.63;5117321;27;20051;-75
2022/10/27 11:51:29;;;;;;;3.80;2.40;;;;;;;19.66;91.48;101763.22;5117720;27;20127;-75
2022/10/27 11:57:31;;;;;;;9.43;3.00;;;;;;;19.48;92.78;101763.47;5113143;28;20050;-74
2022/10/27 12:00:06;;;;;;;6.05;2.47;;;;;;;19.41;93.76;101758.22;5098809;28;20036;-73
2022/10/27 12:06:04;;;;;;;6.45;2.63;;;;;;;19.31;94.78;101740.97;5114122;28;20168;-74
2022/10/27 12:08:54;;;;;;;22.45;10.20;;;;;;;19.33;94.61;101738.81;5116733;28;20047;-73
2022/10/27 12:11:41;;;;;;;6.43;3.15;;;;;;;19.29;95.53;101741.22;5095627;28;20027;-74
2022/10/27 12:14:24;;;;;;;6.15;2.70;;;;;;;19.28;95.08;101742.28;5116339;28;20171;-73
2022/10/27 12:20:17;;;;;;;8.38;2.50;;;;;;;19.52;94.49;101736.66;5108419;28;20143;-74
2022/10/27 12:22:49;;;;;;;7.25;2.40;;;;;;;19.60;94.78;101733.53;5090821;28;20370;-74
2022/10/27 12:25:23;;;;;;;8.82;4.65;;;;;;;19.73;94.07;101728.56;5103040;28;20031;-74
2022/10/27 12:27:53;;;;;;;8.00;4.55;;;;;;;19.75;93.11;101720.97;5105682;28;20051;-73
2022/10/27 12:30:21;;;;;;;4.90;2.60;;;;;;;19.80;93.43;101721.03;5095702;28;20038;-73
2022/10/27 12:33:03;;;;;;;4.82;2.38;;;;;;;19.87;93.35;101709.16;5116885;28;20044;-74
2022/10/27 12:35:43;;;;;;;5.63;2.90;;;;;;;19.84;94.02;101704.22;5113807;28;20031;-73
2022/10/27 12:38:21;;;;;;;7.50;3.90;;;;;;;19.71;96.30;101691.88;5116814;27;20035;-74
2022/10/27 12:41:01;;;;;;;11.57;3.25;;;;;;;19.72;95.14;101691.63;5113637;28;20531;-73
2022/10/27 12:43:40;;;;;;;6.47;2.85;;;;;;;19.66;95.28;101687.22;5116834;28;20695;-74
2022/10/27 12:49:57;;;;;;;7.75;3.10;;;;;;;19.49;97.84;101681.00;5111714;28;20085;-73
2022/10/27 12:56:03;;;;;;;6.03;2.55;;;;;;;19.54;98.46;101688.41;5112799;28;20399;-73
2022/10/27 13:02:09;;;;;;;11.50;2.88;;;;;;;19.69;97.99;101680.47;5113273;28;20067;-73
2022/10/27 13:11:22;;;;;;;5.18;2.70;;;;;;;19.86;97.03;101681.19;5113530;28;20065;-73
2022/10/27 13:17:19;;;;;;;6.35;3.63;;;;;;;19.77;97.66;101667.25;5113451;28;20082;-73
2022/10/27 13:19:52;;;;;;;7.05;3.10;;;;;;;19.71;98.57;101670.19;5116110;28;20055;-73
2022/10/27 13:29:40;;;;;;;13.18;4.72;;;;;;;19.73;100.00;101666.13;5112970;28;20399;-73
2022/10/27 13:35:28;;;;;;;6.78;3.10;;;;;;;19.70;100.00;101646.81;5113095;28;20077;-74
2022/10/27 13:41:54;;;;;;;5.75;2.60;;;;;;;19.73;100.00;101647.13;5110986;28;20092;-75
2022/10/27 13:51:53;;;;;;;9.02;3.28;;;;;;;19.61;100.00;101632.88;5112831;28;20447;-74
2022/10/27 13:54:53;;;;;;;7.55;3.63;;;;;;;19.65;100.00;101617.72;5115455;28;20055;-74
2022/10/27 13:58:02;;;;;;;7.95;3.13;;;;;;;19.66;100.00;101615.81;5094118;28;20578;-74
2022/10/27 14:00:56;;;;;;;7.05;3.40;;;;;;;19.68;100.00;101617.22;5115472;27;20185;-73
2022/10/27 14:03:37;;;;;;;8.60;3.17;;;;;;;19.72;100.00;101620.25;5112614;28;20023;-74
2022/10/27 14:06:20;;;;;;;7.82;3.10;;;;;;;19.64;100.00;101618.78;5115388;27;20434;-74
2022/10/27 14:08:45;;;;;;;6.07;2.65;;;;;;;19.69;100.00;101627.00;5094107;28;20467;-74
2022/10/27 14:11:30;;;;;;;7.37;4.00;;;;;;;19.64;100.00;101637.78;5114471;28;20100;-74
2022/10/27 14:14:00;;;;;;;6.38;3.13;;;;;;;19.66;100.00;101651.94;5093843;28;20505;-74
2022/10/27 14:16:35;;;;;;;8.93;3.42;;;;;;;19.65;100.00;101644.84;5112185;28;20028;-74
2022/10/27 14:22:33;;;;;;;9.30;2.83;;;;;;;19.69;100.00;101637.88;5112594;28;20123;-74
2022/10/27 14:25:18;;;;;;;7.50;3.45;;;;;;;19.65;100.00;101634.00;5103633;28;20506;-74
2022/10/27 14:27:44;;;;;;;9.70;3.42;;;;;;;19.66;100.00;101634.81;5112059;28;20517;-74
2022/10/27 14:30:19;;;;;;;10.20;3.28;;;;;;;19.65;100.00;101633.19;5115059;27;20079;-74
2022/10/27 14:32:45;;;;;;;7.60;3.30;;;;;;;19.65;100.00;101633.19;5111982;28;20035;-74
2022/10/27 14:35:22;;;;;;;9.45;3.97;;;;;;;19.62;100.00;101637.22;5114981;27;20042;-74